sensor_id;sensor_type;location;lat;lon;timestamp;P1;durP1;ratioP1;P2;durP2;ratioP2
63010;SDS011;49100;48.842;2.166;2023-02-04T00:00:48;20.25;;;18.75;;
63010;SDS011;49100;48.842;2.166;2023-02-04T00:03:32;19.00;;;16.00;;
63010;SDS011;49100;48.842;2.166;2023-02-04T00:06:16;17.25;;;16.00;;
63010;SDS011;49100;48.842;2.166;2023-02-04T00:09:01;19.25;;;18.75;;
63010;SDS011;49100;48.842;2.166;2023-02-04T00:11:45;17.00;;;17.00;;
63010;SDS011;49100;48.842;2.166;2023-02-04T00:14:30;17.75;;;14.25;;
63010;SDS011;49100;48.842;2.166;2023-02-04T00:17:14;23.25;;;17.00;;
63010;SDS011;49100;48.842;2.166;2023-02-04T00:19:59;22.25;;;18.00;;
63010;SDS011;49100;48.842;2.166;2023-02-04T00:22:43;19.50;;;16.75;;
63010;SDS011;49100;48.842;2.166;2023-02-04T00:25:27;18.75;;;17.25;;
63010;SDS011;49100;48.842;2.166;2023-02-04T00:28:12;22.00;;;17.50;;
63010;SDS011;49100;48.842;2.166;2023-02-04T00:30:56;18.25;;;16.50;;
63010;SDS011;49100;48.842;2.166;2023-02-04T00:33:41;21.25;;;18.50;;
63010;SDS011;49100;48.842;2.166;2023-02-04T00:36:26;19.00;;;18.00;;
63010;SDS011;49100;48.842;2.166;2023-02-04T00:39:10;18.00;;;15.50;;
63010;SDS011;49100;48.842;2.166;2023-02-04T00:41:55;23.25;;;18.00;;
63010;SDS011;49100;48.842;2.166;2023-02-04T00:44:39;16.00;;;14.75;;
63010;SDS011;49100;48.842;2.166;2023-02-04T00:47:24;23.00;;;18.75;;
63010;SDS011;49100;48.842;2.166;2023-02-04T00:50:08;18.00;;;15.75;;
63010;SDS011;49100;48.842;2.166;2023-02-04T00:52:52;22.00;;;18.25;;
63010;SDS011;49100;48.842;2.166;2023-02-04T00:55:37;18.25;;;16.25;;
63010;SDS011;49100;48.842;2.166;2023-02-04T00:58:21;18.00;;;16.50;;
63010;SDS011;49100;48.842;2.166;2023-02-04T01:01:06;17.50;;;15.75;;
63010;SDS011;49100;48.842;2.166;2023-02-04T01:03:50;21.25;;;17.75;;
63010;SDS011;49100;48.842;2.166;2023-02-04T01:06:35;20.50;;;18.50;;
63010;SDS011;49100;48.842;2.166;2023-02-04T01:09:19;18.75;;;16.75;;
63010;SDS011;49100;48.842;2.166;2023-02-04T01:12:03;20.50;;;17.00;;
63010;SDS011;49100;48.842;2.166;2023-02-04T01:14:48;27.50;;;19.25;;
63010;SDS011;49100;48.842;2.166;2023-02-04T01:17:32;16.25;;;14.75;;
63010;SDS011;49100;48.842;2.166;2023-02-04T01:20:17;19.75;;;16.25;;
63010;SDS011;49100;48.842;2.166;2023-02-04T01:23:01;19.25;;;15.00;;
63010;SDS011;49100;48.842;2.166;2023-02-04T01:25:45;18.25;;;16.75;;
63010;SDS011;49100;48.842;2.166;2023-02-04T01:28:30;22.50;;;18.00;;
63010;SDS011;49100;48.842;2.166;2023-02-04T01:31:14;24.00;;;20.50;;
63010;SDS011;49100;48.842;2.166;2023-02-04T01:33:59;20.25;;;17.25;;
63010;SDS011;49100;48.842;2.166;2023-02-04T01:36:44;19.00;;;17.00;;
63010;SDS011;49100;48.842;2.166;2023-02-04T01:39:28;20.50;;;17.25;;
63010;SDS011;49100;48.842;2.166;2023-02-04T01:42:13;16.75;;;14.75;;
63010;SDS011;49100;48.842;2.166;2023-02-04T01:44:57;15.50;;;15.00;;
63010;SDS011;49100;48.842;2.166;2023-02-04T01:47:42;22.50;;;18.75;;
63010;SDS011;49100;48.842;2.166;2023-02-04T01:50:27;16.75;;;14.75;;
63010;SDS011;49100;48.842;2.166;2023-02-04T01:53:11;23.00;;;17.00;;
63010;SDS011;49100;48.842;2.166;2023-02-04T01:55:56;20.00;;;17.25;;
63010;SDS011;49100;48.842;2.166;2023-02-04T01:58:40;19.25;;;16.50;;
63010;SDS011;49100;48.842;2.166;2023-02-04T02:01:44;20.25;;;17.00;;
63010;SDS011;49100;48.842;2.166;2023-02-04T02:04:29;20.50;;;16.00;;
63010;SDS011;49100;48.842;2.166;2023-02-04T02:07:14;16.75;;;12.50;;
63010;SDS011;49100;48.842;2.166;2023-02-04T02:09:58;18.25;;;18.25;;
63010;SDS011;49100;48.842;2.166;2023-02-04T02:12:43;19.25;;;14.75;;
63010;SDS011;49100;48.842;2.166;2023-02-04T02:15:28;24.75;;;18.50;;
63010;SDS011;49100;48.842;2.166;2023-02-04T02:18:13;24.00;;;17.75;;
63010;SDS011;49100;48.842;2.166;2023-02-04T02:20:58;20.25;;;15.25;;
63010;SDS011;49100;48.842;2.166;2023-02-04T02:23:45;19.50;;;16.00;;
63010;SDS011;49100;48.842;2.166;2023-02-04T02:26:30;21.75;;;16.75;;
63010;SDS011;49100;48.842;2.166;2023-02-04T02:29:14;18.75;;;15.50;;
63010;SDS011;49100;48.842;2.166;2023-02-04T02:31:58;19.00;;;15.00;;
63010;SDS011;49100;48.842;2.166;2023-02-04T02:34:43;15.00;;;13.00;;
63010;SDS011;49100;48.842;2.166;2023-02-04T02:37:28;20.00;;;17.00;;
63010;SDS011;49100;48.842;2.166;2023-02-04T02:40:12;20.75;;;17.75;;
63010;SDS011;49100;48.842;2.166;2023-02-04T02:42:57;21.00;;;18.75;;
63010;SDS011;49100;48.842;2.166;2023-02-04T02:45:41;14.50;;;14.50;;
63010;SDS011;49100;48.842;2.166;2023-02-04T02:48:26;18.75;;;17.25;;
63010;SDS011;49100;48.842;2.166;2023-02-04T02:51:10;19.00;;;17.00;;
63010;SDS011;49100;48.842;2.166;2023-02-04T02:53:55;27.50;;;19.25;;
63010;SDS011;49100;48.842;2.166;2023-02-04T02:56:39;17.50;;;16.25;;
63010;SDS011;49100;48.842;2.166;2023-02-04T02:59:23;21.50;;;18.00;;
63010;SDS011;49100;48.842;2.166;2023-02-04T03:02:08;22.00;;;17.00;;
63010;SDS011;49100;48.842;2.166;2023-02-04T03:04:54;19.00;;;16.50;;
63010;SDS011;49100;48.842;2.166;2023-02-04T03:07:41;18.50;;;15.50;;
63010;SDS011;49100;48.842;2.166;2023-02-04T03:10:25;19.75;;;16.00;;
63010;SDS011;49100;48.842;2.166;2023-02-04T03:13:10;19.00;;;15.50;;
63010;SDS011;49100;48.842;2.166;2023-02-04T03:15:55;19.50;;;16.75;;
63010;SDS011;49100;48.842;2.166;2023-02-04T03:18:40;21.25;;;16.25;;
63010;SDS011;49100;48.842;2.166;2023-02-04T03:21:25;16.25;;;16.00;;
63010;SDS011;49100;48.842;2.166;2023-02-04T03:24:09;24.75;;;17.75;;
63010;SDS011;49100;48.842;2.166;2023-02-04T03:26:53;24.75;;;20.00;;
63010;SDS011;49100;48.842;2.166;2023-02-04T03:29:44;19.75;;;16.75;;
63010;SDS011;49100;48.842;2.166;2023-02-04T03:32:29;16.50;;;16.25;;
63010;SDS011;49100;48.842;2.166;2023-02-04T03:35:13;19.25;;;17.50;;
63010;SDS011;49100;48.842;2.166;2023-02-04T03:37:57;20.50;;;15.25;;
63010;SDS011;49100;48.842;2.166;2023-02-04T03:40:42;16.25;;;16.25;;
63010;SDS011;49100;48.842;2.166;2023-02-04T03:43:26;24.25;;;15.75;;
63010;SDS011;49100;48.842;2.166;2023-02-04T03:46:10;18.25;;;18.25;;
63010;SDS011;49100;48.842;2.166;2023-02-04T03:48:55;22.00;;;18.25;;
63010;SDS011;49100;48.842;2.166;2023-02-04T03:51:39;17.25;;;16.75;;
63010;SDS011;49100;48.842;2.166;2023-02-04T03:54:23;19.75;;;16.75;;
63010;SDS011;49100;48.842;2.166;2023-02-04T03:57:08;19.00;;;17.75;;
63010;SDS011;49100;48.842;2.166;2023-02-04T03:59:53;19.00;;;15.75;;
63010;SDS011;49100;48.842;2.166;2023-02-04T04:02:38;18.00;;;15.50;;
63010;SDS011;49100;48.842;2.166;2023-02-04T04:05:22;23.50;;;19.25;;
63010;SDS011;49100;48.842;2.166;2023-02-04T04:08:06;20.25;;;18.25;;
63010;SDS011;49100;48.842;2.166;2023-02-04T04:10:51;22.00;;;19.50;;
63010;SDS011;49100;48.842;2.166;2023-02-04T04:13:35;23.25;;;21.50;;
63010;SDS011;49100;48.842;2.166;2023-02-04T04:16:20;28.00;;;22.50;;
63010;SDS011;49100;48.842;2.166;2023-02-04T04:19:04;25.50;;;22.00;;
63010;SDS011;49100;48.842;2.166;2023-02-04T04:21:48;22.75;;;20.75;;
63010;SDS011;49100;48.842;2.166;2023-02-04T04:24:33;25.25;;;22.25;;
63010;SDS011;49100;48.842;2.166;2023-02-04T04:27:17;28.75;;;26.50;;
63010;SDS011;49100;48.842;2.166;2023-02-04T04:30:02;26.75;;;22.75;;
63010;SDS011;49100;48.842;2.166;2023-02-04T04:32:47;30.75;;;26.25;;
63010;SDS011;49100;48.842;2.166;2023-02-04T04:35:31;32.50;;;25.75;;
63010;SDS011;49100;48.842;2.166;2023-02-04T04:38:17;31.50;;;27.50;;
63010;SDS011;49100;48.842;2.166;2023-02-04T04:41:02;35.00;;;26.75;;
63010;SDS011;49100;48.842;2.166;2023-02-04T04:43:46;31.75;;;25.50;;
63010;SDS011;49100;48.842;2.166;2023-02-04T04:46:31;29.00;;;25.50;;
63010;SDS011;49100;48.842;2.166;2023-02-04T04:49:15;33.25;;;27.00;;
63010;SDS011;49100;48.842;2.166;2023-02-04T04:52:00;33.75;;;30.00;;
63010;SDS011;49100;48.842;2.166;2023-02-04T04:54:44;32.50;;;29.00;;
63010;SDS011;49100;48.842;2.166;2023-02-04T04:57:28;33.00;;;27.00;;
63010;SDS011;49100;48.842;2.166;2023-02-04T05:00:14;31.75;;;25.75;;
63010;SDS011;49100;48.842;2.166;2023-02-04T05:02:59;30.25;;;24.25;;
63010;SDS011;49100;48.842;2.166;2023-02-04T05:05:43;30.75;;;28.75;;
63010;SDS011;49100;48.842;2.166;2023-02-04T05:08:27;29.75;;;22.25;;
63010;SDS011;49100;48.842;2.166;2023-02-04T05:11:12;27.00;;;22.75;;
63010;SDS011;49100;48.842;2.166;2023-02-04T05:13:56;22.75;;;21.00;;
63010;SDS011;49100;48.842;2.166;2023-02-04T05:16:41;28.25;;;24.00;;
63010;SDS011;49100;48.842;2.166;2023-02-04T05:19:25;29.25;;;27.25;;
63010;SDS011;49100;48.842;2.166;2023-02-04T05:22:10;28.75;;;24.00;;
63010;SDS011;49100;48.842;2.166;2023-02-04T05:24:54;30.25;;;25.50;;
63010;SDS011;49100;48.842;2.166;2023-02-04T05:27:38;29.75;;;28.00;;
63010;SDS011;49100;48.842;2.166;2023-02-04T05:30:23;31.75;;;27.00;;
63010;SDS011;49100;48.842;2.166;2023-02-04T05:33:07;39.25;;;30.00;;
63010;SDS011;49100;48.842;2.166;2023-02-04T05:35:51;29.00;;;24.00;;
63010;SDS011;49100;48.842;2.166;2023-02-04T05:38:36;6.50;;;3.00;;
63010;SDS011;49100;48.842;2.166;2023-02-04T05:41:20;33.00;;;29.00;;
63010;SDS011;49100;48.842;2.166;2023-02-04T05:44:05;27.25;;;24.25;;
63010;SDS011;49100;48.842;2.166;2023-02-04T05:46:49;29.50;;;28.50;;
63010;SDS011;49100;48.842;2.166;2023-02-04T05:49:34;33.00;;;29.00;;
63010;SDS011;49100;48.842;2.166;2023-02-04T05:52:18;30.25;;;26.00;;
63010;SDS011;49100;48.842;2.166;2023-02-04T05:55:02;34.00;;;30.00;;
63010;SDS011;49100;48.842;2.166;2023-02-04T05:57:47;37.75;;;32.25;;
63010;SDS011;49100;48.842;2.166;2023-02-04T06:00:31;36.00;;;31.50;;
63010;SDS011;49100;48.842;2.166;2023-02-04T06:03:16;29.75;;;29.50;;
63010;SDS011;49100;48.842;2.166;2023-02-04T06:06:02;39.25;;;32.00;;
63010;SDS011;49100;48.842;2.166;2023-02-04T06:08:46;45.00;;;32.25;;
63010;SDS011;49100;48.842;2.166;2023-02-04T06:11:31;38.50;;;28.50;;
63010;SDS011;49100;48.842;2.166;2023-02-04T06:14:15;32.50;;;26.50;;
63010;SDS011;49100;48.842;2.166;2023-02-04T06:17:00;33.25;;;27.00;;
63010;SDS011;49100;48.842;2.166;2023-02-04T06:19:44;37.00;;;30.25;;
63010;SDS011;49100;48.842;2.166;2023-02-04T06:22:29;45.75;;;35.75;;
63010;SDS011;49100;48.842;2.166;2023-02-04T06:25:13;26.75;;;22.50;;
63010;SDS011;49100;48.842;2.166;2023-02-04T06:27:57;37.75;;;30.25;;
63010;SDS011;49100;48.842;2.166;2023-02-04T06:30:42;36.75;;;29.50;;
63010;SDS011;49100;48.842;2.166;2023-02-04T06:33:26;36.25;;;31.00;;
63010;SDS011;49100;48.842;2.166;2023-02-04T06:36:11;40.50;;;33.25;;
63010;SDS011;49100;48.842;2.166;2023-02-04T06:38:55;32.50;;;28.00;;
63010;SDS011;49100;48.842;2.166;2023-02-04T06:41:40;48.00;;;36.50;;
63010;SDS011;49100;48.842;2.166;2023-02-04T06:44:24;47.25;;;38.00;;
63010;SDS011;49100;48.842;2.166;2023-02-04T06:47:09;56.50;;;45.00;;
63010;SDS011;49100;48.842;2.166;2023-02-04T06:49:53;74.50;;;58.00;;
63010;SDS011;49100;48.842;2.166;2023-02-04T06:52:38;66.75;;;51.50;;
63010;SDS011;49100;48.842;2.166;2023-02-04T06:55:22;50.25;;;41.25;;
63010;SDS011;49100;48.842;2.166;2023-02-04T06:58:07;55.50;;;41.50;;
63010;SDS011;49100;48.842;2.166;2023-02-04T07:00:51;60.25;;;47.50;;
63010;SDS011;49100;48.842;2.166;2023-02-04T07:03:35;60.25;;;46.00;;
63010;SDS011;49100;48.842;2.166;2023-02-04T07:06:20;54.00;;;39.25;;
63010;SDS011;49100;48.842;2.166;2023-02-04T07:09:04;49.25;;;39.00;;
63010;SDS011;49100;48.842;2.166;2023-02-04T07:11:49;43.50;;;36.00;;
63010;SDS011;49100;48.842;2.166;2023-02-04T07:14:33;44.75;;;35.75;;
63010;SDS011;49100;48.842;2.166;2023-02-04T07:17:17;45.25;;;36.00;;
63010;SDS011;49100;48.842;2.166;2023-02-04T07:20:02;47.25;;;35.25;;
63010;SDS011;49100;48.842;2.166;2023-02-04T07:22:46;43.25;;;35.50;;
63010;SDS011;49100;48.842;2.166;2023-02-04T07:25:31;38.50;;;34.00;;
63010;SDS011;49100;48.842;2.166;2023-02-04T07:28:15;46.25;;;35.00;;
63010;SDS011;49100;48.842;2.166;2023-02-04T07:30:59;48.50;;;39.75;;
63010;SDS011;49100;48.842;2.166;2023-02-04T07:33:44;49.75;;;37.25;;
63010;SDS011;49100;48.842;2.166;2023-02-04T07:36:28;51.50;;;39.00;;
63010;SDS011;49100;48.842;2.166;2023-02-04T07:39:13;46.75;;;38.25;;
63010;SDS011;49100;48.842;2.166;2023-02-04T07:41:57;51.50;;;40.00;;
63010;SDS011;49100;48.842;2.166;2023-02-04T07:44:41;59.50;;;44.25;;
63010;SDS011;49100;48.842;2.166;2023-02-04T07:47:26;49.75;;;41.50;;
63010;SDS011;49100;48.842;2.166;2023-02-04T07:50:10;48.00;;;37.75;;
63010;SDS011;49100;48.842;2.166;2023-02-04T07:52:55;52.50;;;39.50;;
63010;SDS011;49100;48.842;2.166;2023-02-04T07:55:39;49.25;;;39.75;;
63010;SDS011;49100;48.842;2.166;2023-02-04T07:58:23;46.50;;;37.50;;
63010;SDS011;49100;48.842;2.166;2023-02-04T08:01:08;51.50;;;39.75;;
63010;SDS011;49100;48.842;2.166;2023-02-04T08:03:52;51.75;;;38.50;;
63010;SDS011;49100;48.842;2.166;2023-02-04T08:06:37;47.50;;;37.75;;
63010;SDS011;49100;48.842;2.166;2023-02-04T08:09:21;55.00;;;42.75;;
63010;SDS011;49100;48.842;2.166;2023-02-04T08:12:06;52.75;;;41.25;;
63010;SDS011;49100;48.842;2.166;2023-02-04T08:14:51;50.75;;;40.75;;
63010;SDS011;49100;48.842;2.166;2023-02-04T08:17:35;47.00;;;37.50;;
63010;SDS011;49100;48.842;2.166;2023-02-04T08:20:19;44.00;;;35.25;;
63010;SDS011;49100;48.842;2.166;2023-02-04T08:23:04;45.75;;;37.00;;
63010;SDS011;49100;48.842;2.166;2023-02-04T08:25:48;54.75;;;40.50;;
63010;SDS011;49100;48.842;2.166;2023-02-04T08:28:33;44.25;;;34.50;;
63010;SDS011;49100;48.842;2.166;2023-02-04T08:31:17;44.50;;;35.50;;
63010;SDS011;49100;48.842;2.166;2023-02-04T08:34:02;39.00;;;31.50;;
63010;SDS011;49100;48.842;2.166;2023-02-04T08:36:46;37.25;;;32.00;;
63010;SDS011;49100;48.842;2.166;2023-02-04T08:39:31;34.25;;;29.50;;
63010;SDS011;49100;48.842;2.166;2023-02-04T08:42:15;31.50;;;25.75;;
63010;SDS011;49100;48.842;2.166;2023-02-04T08:45:00;36.25;;;29.00;;
63010;SDS011;49100;48.842;2.166;2023-02-04T08:47:44;32.25;;;26.50;;
63010;SDS011;49100;48.842;2.166;2023-02-04T08:50:29;34.50;;;27.25;;
63010;SDS011;49100;48.842;2.166;2023-02-04T08:53:14;22.00;;;19.75;;
63010;SDS011;49100;48.842;2.166;2023-02-04T08:55:58;23.25;;;19.25;;
63010;SDS011;49100;48.842;2.166;2023-02-04T08:58:43;20.00;;;19.25;;
63010;SDS011;49100;48.842;2.166;2023-02-04T09:01:28;20.75;;;19.75;;
63010;SDS011;49100;48.842;2.166;2023-02-04T09:04:12;23.00;;;19.75;;
63010;SDS011;49100;48.842;2.166;2023-02-04T09:06:56;21.75;;;20.25;;
63010;SDS011;49100;48.842;2.166;2023-02-04T09:09:41;23.50;;;19.50;;
63010;SDS011;49100;48.842;2.166;2023-02-04T09:12:25;24.25;;;22.00;;
63010;SDS011;49100;48.842;2.166;2023-02-04T09:15:10;24.00;;;20.75;;
63010;SDS011;49100;48.842;2.166;2023-02-04T09:17:54;24.00;;;20.00;;
63010;SDS011;49100;48.842;2.166;2023-02-04T09:20:47;23.75;;;19.75;;
63010;SDS011;49100;48.842;2.166;2023-02-04T09:23:32;22.50;;;19.50;;
63010;SDS011;49100;48.842;2.166;2023-02-04T09:35:56;26.00;;;26.00;;
63010;SDS011;49100;48.842;2.166;2023-02-04T09:47:36;19.00;;;19.00;;
63010;SDS011;49100;48.842;2.166;2023-02-04T09:59:21;19.50;;;19.50;;
63010;SDS011;49100;48.842;2.166;2023-02-04T10:11:01;12.00;;;12.00;;
63010;SDS011;49100;48.842;2.166;2023-02-04T10:22:43;14.00;;;14.00;;
63010;SDS011;49100;48.842;2.166;2023-02-04T10:34:31;19.00;;;19.00;;
63010;SDS011;49100;48.842;2.166;2023-02-04T10:46:11;16.00;;;16.00;;
63010;SDS011;49100;48.842;2.166;2023-02-04T10:57:57;16.00;;;16.00;;
63010;SDS011;49100;48.842;2.166;2023-02-04T11:09:41;33.50;;;10.00;;
63010;SDS011;49100;48.842;2.166;2023-02-04T11:21:26;13.50;;;13.50;;
63010;SDS011;49100;48.842;2.166;2023-02-04T11:33:23;12.50;;;10.50;;
63010;SDS011;49100;48.842;2.166;2023-02-04T11:57:15;12.00;;;12.00;;
63010;SDS011;49100;48.842;2.166;2023-02-04T12:11:06;23.00;;;11.50;;
63010;SDS011;49100;48.842;2.166;2023-02-04T12:22:49;13.50;;;11.50;;
63010;SDS011;49100;48.842;2.166;2023-02-04T12:34:29;9.50;;;9.50;;
63010;SDS011;49100;48.842;2.166;2023-02-04T12:46:10;25.00;;;21.00;;
63010;SDS011;49100;48.842;2.166;2023-02-04T12:57:50;33.00;;;13.00;;
63010;SDS011;49100;48.842;2.166;2023-02-04T13:09:31;22.00;;;22.00;;
63010;SDS011;49100;48.842;2.166;2023-02-04T13:21:11;10.00;;;10.00;;
63010;SDS011;49100;48.842;2.166;2023-02-04T13:32:52;26.00;;;11.00;;
63010;SDS011;49100;48.842;2.166;2023-02-04T13:44:32;13.50;;;13.50;;
63010;SDS011;49100;48.842;2.166;2023-02-04T13:56:13;14.00;;;14.00;;
63010;SDS011;49100;48.842;2.166;2023-02-04T14:07:53;16.00;;;16.00;;
63010;SDS011;49100;48.842;2.166;2023-02-04T14:19:33;17.00;;;13.00;;
63010;SDS011;49100;48.842;2.166;2023-02-04T14:31:13;15.00;;;15.00;;
63010;SDS011;49100;48.842;2.166;2023-02-04T14:42:53;16.50;;;16.50;;
63010;SDS011;49100;48.842;2.166;2023-02-04T14:54:34;19.50;;;14.50;;
63010;SDS011;49100;48.842;2.166;2023-02-04T15:06:14;15.50;;;15.50;;
63010;SDS011;49100;48.842;2.166;2023-02-04T15:17:54;33.50;;;21.50;;
63010;SDS011;49100;48.842;2.166;2023-02-04T15:29:38;26.00;;;14.50;;
63010;SDS011;49100;48.842;2.166;2023-02-04T15:41:18;25.50;;;21.50;;
63010;SDS011;49100;48.842;2.166;2023-02-04T15:52:59;18.50;;;18.50;;
63010;SDS011;49100;48.842;2.166;2023-02-04T16:04:39;20.00;;;16.00;;
63010;SDS011;49100;48.842;2.166;2023-02-04T16:16:23;15.00;;;15.00;;
63010;SDS011;49100;48.842;2.166;2023-02-04T16:28:03;16.00;;;12.00;;
63010;SDS011;49100;48.842;2.166;2023-02-04T16:39:44;18.00;;;14.00;;
63010;SDS011;49100;48.842;2.166;2023-02-04T16:51:24;14.00;;;14.00;;
63010;SDS011;49100;48.842;2.166;2023-02-04T17:03:04;18.50;;;18.50;;
63010;SDS011;49100;48.842;2.166;2023-02-04T17:16:25;30.00;;;12.50;;
63010;SDS011;49100;48.842;2.166;2023-02-04T17:28:06;21.00;;;15.50;;
63010;SDS011;49100;48.842;2.166;2023-02-04T17:39:46;23.00;;;23.00;;
63010;SDS011;49100;48.842;2.166;2023-02-04T17:51:27;25.50;;;25.50;;
63010;SDS011;49100;48.842;2.166;2023-02-04T18:03:19;11.00;;;11.00;;
63010;SDS011;49100;48.842;2.166;2023-02-04T18:14:59;16.50;;;16.50;;
63010;SDS011;49100;48.842;2.166;2023-02-04T18:26:50;13.00;;;13.00;;
63010;SDS011;49100;48.842;2.166;2023-02-04T18:38:32;8.00;;;8.00;;
63010;SDS011;49100;48.842;2.166;2023-02-04T18:50:25;20.50;;;20.50;;
63010;SDS011;49100;48.842;2.166;2023-02-04T19:02:18;12.50;;;12.50;;
63010;SDS011;49100;48.842;2.166;2023-02-04T19:14:16;22.50;;;20.00;;
63010;SDS011;49100;48.842;2.166;2023-02-04T19:25:56;14.50;;;14.50;;
63010;SDS011;49100;48.842;2.166;2023-02-04T19:37:38;26.00;;;11.00;;
63010;SDS011;49100;48.842;2.166;2023-02-04T19:49:23;38.00;;;14.50;;
63010;SDS011;49100;48.842;2.166;2023-02-04T20:01:05;28.00;;;16.00;;
63010;SDS011;49100;48.842;2.166;2023-02-04T20:13:11;14.00;;;14.00;;
63010;SDS011;49100;48.842;2.166;2023-02-04T20:24:54;21.50;;;17.50;;
63010;SDS011;49100;48.842;2.166;2023-02-04T20:36:36;16.50;;;16.50;;
63010;SDS011;49100;48.842;2.166;2023-02-04T21:00:13;11.00;;;11.00;;
63010;SDS011;49100;48.842;2.166;2023-02-04T21:11:54;12.50;;;12.50;;
63010;SDS011;49100;48.842;2.166;2023-02-04T21:23:35;9.50;;;9.50;;
63010;SDS011;49100;48.842;2.166;2023-02-04T21:35:17;23.00;;;11.50;;
63010;SDS011;49100;48.842;2.166;2023-02-04T21:47:06;14.50;;;14.50;;
63010;SDS011;49100;48.842;2.166;2023-02-04T21:59:00;16.00;;;16.00;;
63010;SDS011;49100;48.842;2.166;2023-02-04T22:12:37;14.50;;;14.50;;
63010;SDS011;49100;48.842;2.166;2023-02-04T22:24:17;14.00;;;10.00;;
63010;SDS011;49100;48.842;2.166;2023-02-04T22:35:58;16.50;;;12.50;;
63010;SDS011;49100;48.842;2.166;2023-02-04T22:47:37;16.50;;;12.50;;
63010;SDS011;49100;48.842;2.166;2023-02-04T22:59:17;10.00;;;10.00;;
63010;SDS011;49100;48.842;2.166;2023-02-04T23:10:58;11.00;;;11.00;;
63010;SDS011;49100;48.842;2.166;2023-02-04T23:22:38;10.00;;;10.00;;
63010;SDS011;49100;48.842;2.166;2023-02-04T23:34:18;16.00;;;12.00;;
63010;SDS011;49100;48.842;2.166;2023-02-04T23:45:58;10.50;;;10.50;;
63010;SDS011;49100;48.842;2.166;2023-02-04T23:57:42;18.00;;;18.00;;
